Time;durP1;ratioP1;P1;durP2;ratioP2;P2;SDS_P1;SDS_P2;PMS_P1;PMS_P2;Temp;Humidity;BMP_temperature;BMP_pressure;BME280_temperature;BME280_humidity;BME280_pressure;Samples;Min_cycle;Max_cycle;Signal;HPM_P1;HPM_P2
2021/05/22 00:00:50;;;;;;;2.20;0.97;;;;;;;12.54;54.81;99419.84;5024122;28;20303;-62
2021/05/22 00:03:16;;;;;;;3.13;0.90;;;;;;;12.55;55.03;99408.97;5021287;28;20310;-66
2021/05/22 00:05:42;;;;;;;4.27;1.20;;;;;;;12.56;54.62;99418.69;5022794;28;20277;-64
2021/05/22 00:08:08;;;;;;;4.47;1.27;;;;;;;12.57;54.73;99408.84;5023900;28;20235;-65
2021/05/22 00:10:35;;;;;;;2.17;1.00;;;;;;;12.56;54.58;99418.69;5021427;28;20502;-66
2021/05/22 00:13:01;;;;;;;2.30;0.87;;;;;;;12.57;54.49;99431.06;5019116;28;20373;-64
2021/05/22 00:15:27;;;;;;;2.10;0.60;;;;;;;12.58;54.25;99435.41;5018785;28;20590;-65
2021/05/22 00:17:53;;;;;;;3.27;0.73;;;;;;;12.58;54.17;99422.06;5011402;28;20257;-65
2021/05/22 00:20:20;;;;;;;4.77;1.37;;;;;;;12.59;54.40;99415.75;5019657;28;20692;-65
2021/05/22 00:22:46;;;;;;;4.13;0.90;;;;;;;12.61;54.22;99420.94;5017138;28;20611;-64
2021/05/22 00:25:13;;;;;;;1.93;0.60;;;;;;;12.61;54.21;99427.13;5023491;28;20218;-66
2021/05/22 00:27:40;;;;;;;2.57;1.00;;;;;;;12.61;54.14;99427.13;5024797;28;20230;-65
2021/05/22 00:30:10;;;;;;;3.37;1.10;;;;;;;12.62;54.37;99426.16;5024159;28;20205;-64
2021/05/22 00:32:36;;;;;;;1.93;0.70;;;;;;;12.62;54.37;99426.16;5015090;28;21668;-65
2021/05/22 00:35:02;;;;;;;2.63;1.10;;;;;;;12.63;54.14;99430.50;5020803;28;20210;-65
2021/05/22 00:37:28;;;;;;;3.00;0.90;;;;;;;12.63;54.13;99424.31;5023218;28;20294;-64
2021/05/22 00:39:54;;;;;;;3.33;1.00;;;;;;;12.64;54.48;99420.66;5024369;28;20210;-67
2021/05/22 00:42:21;;;;;;;4.90;0.90;;;;;;;12.62;54.39;99420.81;5020125;28;20239;-63
2021/05/22 00:45:06;;;;;;;2.57;1.10;;;;;;;12.61;54.38;99419.13;5018745;28;20202;-65
2021/05/22 00:47:32;;;;;;;1.87;0.80;;;;;;;12.59;54.40;99417.56;5023091;28;20230;-64
2021/05/22 00:49:58;;;;;;;2.23;1.10;;;;;;;12.57;54.65;99425.72;5016228;28;20555;-64
2021/05/22 00:52:25;;;;;;;4.83;0.80;;;;;;;12.57;54.80;99430.22;5010187;28;20210;-63
2021/05/22 00:54:51;;;;;;;5.67;1.17;;;;;;;12.54;54.80;99431.34;5011131;28;20202;-65
2021/05/22 00:57:18;;;;;;;2.60;1.10;;;;;;;12.52;55.14;99426.16;5016506;28;20715;-64
2021/05/22 00:59:45;;;;;;;2.67;0.90;;;;;;;12.50;55.29;99421.94;5008440;28;20209;-63
2021/05/22 01:02:14;;;;;;;2.30;0.77;;;;;;;12.49;55.24;99417.56;5014197;28;20756;-63
2021/05/22 01:04:40;;;;;;;2.83;0.97;;;;;;;12.46;55.16;99415.19;5013027;28;20217;-62
2021/05/22 01:07:06;;;;;;;4.07;0.67;;;;;;;12.44;55.29;99407.31;5026158;28;20304;-64
2021/05/22 01:09:32;;;;;;;3.37;0.80;;;;;;;12.42;55.23;99403.94;5015143;28;20225;-65
2021/05/22 01:12:03;;;;;;;4.10;1.10;;;;;;;12.41;55.38;99406.72;5018185;28;20213;-65
2021/05/22 01:14:33;;;;;;;3.23;0.90;;;;;;;12.38;55.77;99405.19;5019090;28;20206;-65
2021/05/22 01:17:00;;;;;;;2.83;0.80;;;;;;;12.36;55.38;99401.81;5018613;28;20226;-66
2021/05/22 01:19:37;;;;;;;2.30;0.77;;;;;;;12.33;55.46;99410.13;5020778;28;20202;-65
2021/05/22 01:22:04;;;;;;;3.60;1.03;;;;;;;12.29;55.27;99406.03;5016797;28;20736;-65
2021/05/22 01:24:33;;;;;;;3.53;1.20;;;;;;;12.26;55.26;99408.13;5020221;28;20215;-65
2021/05/22 01:27:00;;;;;;;2.90;0.90;;;;;;;12.21;55.41;99395.19;5017067;28;20225;-62
2021/05/22 01:29:26;;;;;;;3.33;0.97;;;;;;;12.16;55.19;99402.78;5018886;28;20200;-62
2021/05/22 01:31:53;;;;;;;2.07;0.63;;;;;;;12.13;55.27;99411.06;5013629;28;20212;-65
2021/05/22 01:34:19;;;;;;;2.27;0.80;;;;;;;12.08;55.13;99400.78;5015985;28;20689;-64
2021/05/22 01:36:45;;;;;;;1.73;0.70;;;;;;;12.04;55.32;99401.19;5025980;28;20204;-66
2021/05/22 01:39:11;;;;;;;3.43;1.00;;;;;;;12.01;55.39;99412.13;5022018;28;20218;-65
2021/05/22 01:41:37;;;;;;;2.53;0.80;;;;;;;11.96;55.38;99414.38;5017360;28;20740;-63
2021/05/22 01:44:05;;;;;;;2.83;0.60;;;;;;;11.93;55.50;99420.81;5018675;28;20229;-66
2021/05/22 01:46:33;;;;;;;5.53;0.80;;;;;;;11.90;55.36;99417.56;5026655;28;20213;-67
2021/05/22 01:48:59;;;;;;;3.10;0.67;;;;;;;11.86;55.61;99416.16;5052526;22;20231;-67
2021/05/22 01:51:27;;;;;;;2.57;0.80;;;;;;;11.82;55.29;99416.41;5037575;28;20214;-67
2021/05/22 01:53:54;;;;;;;2.37;0.80;;;;;;;11.78;55.94;99423.03;5038933;28;20234;-67
2021/05/22 01:56:20;;;;;;;3.30;0.90;;;;;;;11.74;55.67;99424.22;5039145;28;20728;-66
2021/05/22 01:58:47;;;;;;;2.30;0.70;;;;;;;11.70;55.86;99425.47;5037125;28;20228;-66
2021/05/22 02:01:14;;;;;;;2.83;0.60;;;;;;;11.68;56.00;99430.09;5031743;28;20209;-66
2021/05/22 02:03:46;;;;;;;3.30;0.67;;;;;;;11.65;56.09;99426.84;5034996;28;20230;-67
2021/05/22 02:06:16;;;;;;;5.00;0.70;;;;;;;11.63;56.14;99424.34;5033054;28;20227;-66
2021/05/22 02:08:45;;;;;;;2.93;0.60;;;;;;;11.59;56.14;99417.56;5031131;28;20228;-66
2021/05/22 02:11:13;;;;;;;1.73;0.70;;;;;;;11.54;56.27;99425.13;5032985;28;20206;-66
2021/05/22 02:13:40;;;;;;;1.53;0.67;;;;;;;11.51;56.19;99427.19;5031714;28;20225;-67
2021/05/22 02:16:08;;;;;;;2.93;0.53;;;;;;;11.47;56.40;99430.13;5031054;28;20210;-67
2021/05/22 02:18:36;;;;;;;1.90;0.50;;;;;;;11.43;56.49;99420.72;5035458;28;20306;-66
2021/05/22 02:21:03;;;;;;;1.90;0.40;;;;;;;11.41;56.54;99416.50;5032778;28;20206;-66
2021/05/22 02:23:30;;;;;;;5.17;0.70;;;;;;;11.38;56.58;99424.75;5031718;28;20281;-66
2021/05/22 02:25:58;;;;;;;2.83;0.60;;;;;;;11.35;56.95;99420.53;5033752;28;20721;-67
2021/05/22 02:28:27;;;;;;;2.43;0.50;;;;;;;11.34;56.82;99418.00;5033023;28;20227;-66
2021/05/22 02:30:54;;;;;;;1.30;0.40;;;;;;;11.31;57.02;99415.59;5032420;28;20229;-66
2021/05/22 02:33:20;;;;;;;1.50;0.50;;;;;;;11.26;57.05;99410.69;5032557;28;20199;-66
2021/05/22 02:35:50;;;;;;;1.40;0.60;;;;;;;11.23;57.35;99412.75;5032089;28;20683;-66
2021/05/22 02:38:22;;;;;;;1.50;0.50;;;;;;;11.21;57.49;99418.22;5032596;28;20223;-66
2021/05/22 02:40:52;;;;;;;1.07;0.43;;;;;;;11.19;57.89;99413.97;5028979;28;20206;-66
2021/05/22 02:43:19;;;;;;;0.80;0.40;;;;;;;11.16;58.06;99416.91;5032127;28;20235;-66
2021/05/22 02:45:46;;;;;;;1.53;0.60;;;;;;;11.12;58.33;99427.81;5032657;28;20206;-66
2021/05/22 02:48:16;;;;;;;1.83;0.90;;;;;;;11.08;58.75;99420.25;5027024;28;20253;-66
2021/05/22 02:50:45;;;;;;;1.33;0.40;;;;;;;11.06;58.48;99416.84;5031976;28;20206;-67
2021/05/22 02:53:13;;;;;;;3.83;0.70;;;;;;;11.01;59.12;99417.25;5030770;28;20240;-66
2021/05/22 02:55:39;;;;;;;0.60;0.50;;;;;;;10.98;59.22;99419.31;5032544;28;20206;-67
2021/05/22 02:58:06;;;;;;;1.87;0.70;;;;;;;10.95;59.44;99414.25;5029067;28;20218;-67
2021/05/22 03:00:33;;;;;;;1.53;0.70;;;;;;;10.91;59.84;99413.69;5032249;28;20206;-67
2021/05/22 03:03:00;;;;;;;1.43;0.43;;;;;;;10.88;59.79;99405.94;5031998;28;20233;-67
2021/05/22 03:05:26;;;;;;;4.83;0.50;;;;;;;10.85;60.24;99406.19;5032062;28;20206;-67
2021/05/22 03:07:52;;;;;;;1.77;0.50;;;;;;;10.82;60.20;99408.25;5027249;28;20218;-66
2021/05/22 03:10:19;;;;;;;2.20;0.63;;;;;;;10.80;60.16;99413.72;5032157;28;20209;-67
2021/05/22 03:12:45;;;;;;;2.33;0.70;;;;;;;10.76;60.69;99420.25;5031104;28;20195;-67
2021/05/22 03:15:12;;;;;;;0.83;0.50;;;;;;;10.73;60.67;99415.22;5036055;28;20215;-67
2021/05/22 03:17:38;;;;;;;2.87;0.47;;;;;;;10.70;60.91;99412.81;5032467;28;20232;-66
2021/05/22 03:20:07;;;;;;;0.80;0.50;;;;;;;10.67;61.50;99408.56;5028669;28;20214;-67
2021/05/22 03:22:33;;;;;;;1.53;0.30;;;;;;;10.65;61.47;99417.66;5030793;28;20233;-67
2021/05/22 03:24:59;;;;;;;2.03;0.57;;;;;;;10.63;61.70;99424.94;5031262;28;20214;-66
2021/05/22 03:27:26;;;;;;;1.70;0.90;;;;;;;10.60;61.79;99420.69;5032196;28;20230;-67
2021/05/22 03:29:52;;;;;;;3.37;0.80;;;;;;;10.58;61.74;99408.47;5030493;28;20217;-67
2021/05/22 03:32:18;;;;;;;4.97;1.00;;;;;;;10.56;62.20;99413.13;5030169;28;20211;-67
2021/05/22 03:34:44;;;;;;;3.37;0.70;;;;;;;10.52;62.49;99409.84;5031454;28;20570;-67
2021/05/22 03:37:10;;;;;;;1.83;0.50;;;;;;;10.50;62.47;99410.94;5030658;28;20313;-67
2021/05/22 03:39:36;;;;;;;2.10;0.67;;;;;;;10.47;62.94;99416.53;5030684;28;20577;-67
2021/05/22 03:42:02;;;;;;;2.30;0.80;;;;;;;10.46;62.63;99417.50;5029705;28;20684;-67
2021/05/22 03:44:29;;;;;;;2.20;0.50;;;;;;;10.43;63.11;99421.25;5031108;28;20260;-66
2021/05/22 03:46:55;;;;;;;4.10;0.60;;;;;;;10.41;63.15;99418.72;5030532;28;20210;-67
2021/05/22 03:49:21;;;;;;;2.10;0.43;;;;;;;10.40;63.55;99414.34;5029847;28;20230;-67
2021/05/22 03:51:47;;;;;;;2.83;0.70;;;;;;;10.38;63.50;99408.34;5030249;28;20595;-67
2021/05/22 03:54:14;;;;;;;2.37;0.87;;;;;;;10.38;63.33;99407.50;5031195;28;20207;-66
2021/05/22 03:56:40;;;;;;;2.23;0.60;;;;;;;10.36;63.83;99410.28;5030745;28;20206;-66
2021/05/22 03:59:06;;;;;;;2.40;0.60;;;;;;;10.36;63.39;99415.59;5031036;28;20222;-67
2021/05/22 04:01:32;;;;;;;2.23;0.70;;;;;;;10.36;63.80;99414.75;5027820;28;20736;-67
2021/05/22 04:03:59;;;;;;;3.03;0.80;;;;;;;10.36;63.80;99414.75;5030618;28;20225;-67
2021/05/22 04:06:25;;;;;;;1.57;0.73;;;;;;;10.35;63.75;99410.41;5020240;28;20222;-67
2021/05/22 04:08:51;;;;;;;1.73;0.77;;;;;;;10.33;63.81;99418.50;5025953;28;20326;-67
2021/05/22 04:11:16;;;;;;;1.00;0.50;;;;;;;10.32;63.69;99419.47;5022869;28;20683;-67
2021/05/22 04:13:42;;;;;;;1.63;0.60;;;;;;;10.30;63.84;99413.44;5025924;28;20232;-67
2021/05/22 04:16:08;;;;;;;5.53;1.03;;;;;;;10.29;63.87;99414.41;5024893;28;20230;-67
2021/05/22 04:18:35;;;;;;;2.43;0.63;;;;;;;10.27;64.33;99407.50;5029015;28;20232;-67
2021/05/22 04:21:01;;;;;;;2.27;0.80;;;;;;;10.25;64.33;99418.28;5024806;28;20206;-67
2021/05/22 04:23:27;;;;;;;4.03;1.10;;;;;;;10.24;64.61;99421.91;5016270;28;20230;-67
2021/05/22 04:25:53;;;;;;;1.87;0.73;;;;;;;10.23;64.26;99417.56;5015444;28;20210;-67
2021/05/22 04:28:19;;;;;;;1.80;0.80;;;;;;;10.22;64.84;99412.34;5017131;28;20308;-67
2021/05/22 04:30:45;;;;;;;2.77;0.70;;;;;;;10.22;65.26;99415.84;5020995;28;20206;-67
2021/05/22 04:33:11;;;;;;;1.70;0.70;;;;;;;10.23;65.27;99424.69;5020720;28;20199;-67
2021/05/22 04:35:38;;;;;;;2.23;0.80;;;;;;;10.24;65.14;99423.72;5027563;28;20217;-69
2021/05/22 04:38:04;;;;;;;2.50;0.70;;;;;;;10.25;65.37;99422.75;5024146;28;20222;-70
2021/05/22 04:40:30;;;;;;;1.97;0.77;;;;;;;10.27;65.75;99426.97;5029870;28;20214;-70
2021/05/22 04:42:57;;;;;;;2.37;0.80;;;;;;;10.28;65.58;99423.34;5029434;28;20230;-70
2021/05/22 04:45:23;;;;;;;2.73;0.80;;;;;;;10.33;65.34;99422.97;5030577;28;20202;-70
2021/05/22 04:47:49;;;;;;;5.87;1.23;;;;;;;10.34;66.08;99422.84;5029498;28;20283;-70
2021/05/22 04:50:15;;;;;;;1.47;0.60;;;;;;;10.36;66.08;99426.25;5030407;28;20194;-69
2021/05/22 04:52:42;;;;;;;2.50;0.67;;;;;;;10.39;66.02;99428.63;5029115;28;20206;-70
2021/05/22 04:55:09;;;;;;;2.50;0.80;;;;;;;10.43;65.86;99424.75;5029550;28;20210;-70
2021/05/22 04:57:35;;;;;;;2.13;0.60;;;;;;;10.45;65.68;99419.31;5030259;28;20238;-70
2021/05/22 05:00:02;;;;;;;2.17;0.67;;;;;;;10.48;65.79;99420.88;5029463;28;20594;-70
2021/05/22 05:02:27;;;;;;;1.80;0.73;;;;;;;10.51;65.89;99421.47;5028137;28;20252;-67
2021/05/22 05:04:53;;;;;;;6.33;0.93;;;;;;;10.55;66.27;99419.41;5029887;28;20716;-70
2021/05/22 05:07:20;;;;;;;2.70;0.80;;;;;;;10.58;66.19;99421.78;5029875;28;20202;-70
2021/05/22 05:09:50;;;;;;;6.50;1.67;;;;;;;10.60;65.86;99414.53;5027367;28;20275;-70
2021/05/22 05:12:17;;;;;;;3.10;0.57;;;;;;;10.64;66.27;99418.63;5028388;28;20694;-68
2021/05/22 05:14:43;;;;;;;4.60;1.00;;;;;;;10.69;65.88;99416.44;5029333;28;20206;-70
2021/05/22 05:17:09;;;;;;;6.50;1.17;;;;;;;10.75;65.85;99426.56;5029016;28;20206;-70
2021/05/22 05:19:35;;;;;;;1.60;0.70;;;;;;;10.81;66.41;99426.06;5020956;28;20211;-70
2021/05/22 05:22:01;;;;;;;2.93;0.83;;;;;;;10.86;65.79;99429.19;5024044;28;20206;-70
2021/05/22 05:24:28;;;;;;;2.30;1.00;;;;;;;10.92;65.64;99423.34;5017350;28;20670;-69
2021/05/22 05:26:55;;;;;;;2.23;0.70;;;;;;;11.00;65.26;99431.53;5015764;28;20731;-69
2021/05/22 05:29:21;;;;;;;3.00;1.07;;;;;;;11.08;65.18;99417.56;5015814;28;20242;-69
2021/05/22 05:31:47;;;;;;;2.27;0.90;;;;;;;11.18;65.45;99430.94;5018644;28;20291;-70
2021/05/22 05:34:13;;;;;;;4.90;1.10;;;;;;;11.26;64.79;99420.50;5018838;28;20252;-70
2021/05/22 05:36:39;;;;;;;1.80;0.60;;;;;;;11.37;64.52;99413.25;5017382;28;20199;-69
2021/05/22 05:39:06;;;;;;;2.40;0.90;;;;;;;11.50;64.84;99418.34;5019099;28;20226;-69
2021/05/22 05:41:32;;;;;;;1.57;0.70;;;;;;;11.62;64.33;99411.13;5023706;28;20210;-68
2021/05/22 05:43:59;;;;;;;2.90;0.90;;;;;;;11.75;63.86;99412.59;5025548;28;20231;-69
2021/05/22 05:46:25;;;;;;;3.93;1.00;;;;;;;11.86;63.44;99406.31;5020116;28;20575;-69
2021/05/22 05:48:51;;;;;;;3.63;0.93;;;;;;;11.96;62.97;99409.88;5022973;28;20352;-70
2021/05/22 05:51:17;;;;;;;2.60;0.90;;;;;;;12.09;62.75;99406.97;5018533;28;20217;-70
2021/05/22 05:53:43;;;;;;;2.70;0.60;;;;;;;12.21;62.16;99413.88;5021202;28;20202;-69
2021/05/22 05:56:09;;;;;;;1.30;0.87;;;;;;;12.34;61.93;99406.47;5020115;28;20281;-70
2021/05/22 05:58:35;;;;;;;2.03;0.67;;;;;;;12.46;60.97;99420.53;5019024;28;20622;-70
2021/05/22 06:01:03;;;;;;;3.83;0.80;;;;;;;12.54;60.32;99420.66;5015434;28;20242;-69
2021/05/22 06:03:31;;;;;;;2.83;1.17;;;;;;;12.61;59.95;99415.59;5018049;28;20753;-70
2021/05/22 06:05:57;;;;;;;3.63;1.07;;;;;;;12.68;59.26;99414.91;5020563;28;20207;-70
2021/05/22 06:08:23;;;;;;;3.00;1.10;;;;;;;12.76;58.73;99420.38;5023554;28;20223;-69
2021/05/22 06:10:51;;;;;;;2.07;0.80;;;;;;;12.82;58.00;99424.31;5021107;28;20220;-70
2021/05/22 06:13:24;;;;;;;2.93;0.80;;;;;;;12.93;57.91;99426.00;5015332;28;20281;-70
2021/05/22 06:15:58;;;;;;;3.17;0.80;;;;;;;13.03;57.56;99426.84;5018010;28;20210;-70
2021/05/22 06:18:28;;;;;;;5.10;1.43;;;;;;;13.14;57.43;99421.34;5019201;28;20734;-70
2021/05/22 06:20:55;;;;;;;6.63;0.77;;;;;;;13.19;56.56;99403.91;5020053;28;20659;-72
2021/05/22 06:23:21;;;;;;;4.37;0.90;;;;;;;13.20;56.18;99400.25;5018940;28;20237;-70
2021/05/22 06:25:47;;;;;;;3.37;0.80;;;;;;;13.30;56.55;99404.72;5016745;28;20220;-70
2021/05/22 06:28:13;;;;;;;3.57;1.20;;;;;;;13.42;56.49;99403.59;5016224;28;20227;-70
2021/05/22 06:30:39;;;;;;;1.87;0.87;;;;;;;13.57;56.09;99396.78;5018637;28;20221;-70
2021/05/22 06:33:05;;;;;;;3.87;1.10;;;;;;;13.74;55.41;99401.34;5020114;28;20665;-70
2021/05/22 06:35:32;;;;;;;3.03;1.00;;;;;;;13.90;54.99;99400.72;5019657;28;20271;-70
2021/05/22 06:37:58;;;;;;;3.13;0.80;;;;;;;14.12;55.57;99411.03;5016184;28;20233;-70
2021/05/22 06:40:24;;;;;;;4.23;0.87;;;;;;;14.28;54.10;99410.38;5017461;28;20210;-71
2021/05/22 06:42:50;;;;;;;3.10;0.90;;;;;;;14.38;52.48;99416.47;5015930;28;20707;-70
2021/05/22 06:45:17;;;;;;;3.63;0.80;;;;;;;14.39;51.92;99410.13;5015333;28;20199;-70
2021/05/22 06:47:43;;;;;;;4.83;1.20;;;;;;;14.40;51.74;99417.22;5020121;28;20242;-70
2021/05/22 06:50:10;;;;;;;3.47;0.80;;;;;;;14.43;52.18;99419.59;5021939;28;20261;-71
2021/05/22 06:52:37;;;;;;;2.90;0.80;;;;;;;14.45;51.68;99393.50;5022141;28;20582;-71
2021/05/22 06:55:03;;;;;;;6.90;0.80;;;;;;;14.41;51.23;99408.19;5013263;28;20203;-70
2021/05/22 06:57:29;;;;;;;2.53;0.63;;;;;;;14.41;51.29;99416.22;5014612;28;20798;-70
2021/05/22 06:59:55;;;;;;;3.13;0.83;;;;;;;14.48;51.84;99416.47;5013760;28;20206;-70
2021/05/22 07:02:22;;;;;;;2.37;1.00;;;;;;;14.56;50.94;99411.16;5013700;28;20221;-70
2021/05/22 07:04:48;;;;;;;3.83;1.00;;;;;;;14.63;51.19;99408.72;5012410;28;20229;-71
2021/05/22 07:07:14;;;;;;;4.90;1.10;;;;;;;14.68;50.33;99406.44;5014089;28;20203;-70
2021/05/22 07:09:40;;;;;;;2.93;0.80;;;;;;;14.70;50.00;99407.09;5008359;28;20782;-70
2021/05/22 07:12:09;;;;;;;1.67;0.70;;;;;;;14.65;49.67;99402.22;5010848;28;20206;-69
2021/05/22 07:14:35;;;;;;;3.70;1.07;;;;;;;14.64;50.29;99399.69;5011037;28;20218;-70
2021/05/22 07:17:01;;;;;;;6.27;0.83;;;;;;;14.61;50.26;99403.53;5013293;28;20329;-70
2021/05/22 07:19:27;;;;;;;1.57;0.60;;;;;;;14.62;50.90;99407.88;5014387;28;20215;-70
2021/05/22 07:21:53;;;;;;;4.27;0.90;;;;;;;14.57;50.42;99397.63;5015854;28;20667;-69
2021/05/22 07:24:20;;;;;;;2.30;0.70;;;;;;;14.46;49.93;99392.50;5011183;28;20223;-69
2021/05/22 07:26:48;;;;;;;3.73;0.90;;;;;;;14.34;50.12;99424.97;5012676;28;20214;-70
2021/05/22 07:29:14;;;;;;;2.90;1.00;;;;;;;14.23;50.68;99418.00;5009958;28;20716;-70
2021/05/22 07:31:41;;;;;;;3.07;0.70;;;;;;;14.14;50.37;99410.88;5012501;28;20215;-69
2021/05/22 07:34:08;;;;;;;3.67;0.67;;;;;;;14.03;50.95;99408.38;5012103;28;20211;-71
2021/05/22 07:36:35;;;;;;;3.57;1.23;;;;;;;14.01;51.41;99413.03;5015222;28;20210;-70
2021/05/22 07:39:02;;;;;;;4.30;1.13;;;;;;;14.01;50.96;99405.00;5015846;28;20711;-69
2021/05/22 07:41:28;;;;;;;1.83;0.60;;;;;;;14.01;51.17;99418.41;5013697;28;20214;-71
2021/05/22 07:43:55;;;;;;;2.17;0.60;;;;;;;13.95;51.56;99406.47;5012343;28;20758;-70
2021/05/22 07:46:21;;;;;;;3.20;0.60;;;;;;;13.92;51.43;99404.09;5013689;28;20230;-68
2021/05/22 07:48:47;;;;;;;2.20;0.67;;;;;;;13.85;51.64;99409.19;5020011;28;20234;-69
2021/05/22 07:51:14;;;;;;;3.67;1.00;;;;;;;13.84;51.71;99396.78;5019399;28;20211;-70
2021/05/22 07:53:41;;;;;;;3.17;0.93;;;;;;;13.83;51.72;99395.09;5021244;28;20211;-69
2021/05/22 07:56:07;;;;;;;1.60;0.70;;;;;;;13.86;51.72;99407.34;5022224;28;20209;-70
2021/05/22 07:58:33;;;;;;;4.83;0.90;;;;;;;13.89;51.71;99407.91;5021308;28;20235;-73
2021/05/22 08:01:00;;;;;;;1.83;0.70;;;;;;;13.94;51.75;99404.78;5016850;28;20203;-69
2021/05/22 08:03:26;;;;;;;3.53;0.87;;;;;;;13.98;51.46;99398.13;5085923;22;20648;-67
2021/05/22 08:05:52;;;;;;;3.90;1.10;;;;;;;13.98;51.13;99408.81;5098366;28;20196;-67
2021/05/22 08:08:18;;;;;;;3.47;0.70;;;;;;;14.03;51.43;99395.00;5095158;28;20207;-67
2021/05/22 08:10:44;;;;;;;3.30;0.60;;;;;;;14.11;51.58;99392.44;5098042;28;20287;-68
2021/05/22 08:13:10;;;;;;;2.30;0.77;;;;;;;14.22;51.48;99395.72;5090975;28;20228;-67
2021/05/22 08:15:36;;;;;;;3.87;0.67;;;;;;;14.39;51.13;99372.63;5105597;28;20204;-67
2021/05/22 08:18:04;;;;;;;2.20;0.70;;;;;;;14.50;50.29;99382.34;5104248;28;20229;-67
2021/05/22 08:20:30;;;;;;;5.80;1.00;;;;;;;14.67;50.41;99388.69;5098792;28;20203;-67
2021/05/22 08:22:56;;;;;;;8.07;1.37;;;;;;;14.89;49.98;99390.88;5091807;28;20231;-67
2021/05/22 08:25:23;;;;;;;1.00;0.57;;;;;;;15.03;49.31;99384.97;5094331;28;20228;-68
2021/05/22 08:27:51;;;;;;;1.27;0.43;;;;;;;15.13;48.78;99384.84;5094125;28;20208;-68
2021/05/22 08:30:18;;;;;;;2.67;0.93;;;;;;;15.16;48.71;99390.75;5093133;28;20621;-68
2021/05/22 08:32:44;;;;;;;2.40;0.70;;;;;;;15.22;48.90;99390.13;5090600;28;20631;-68
2021/05/22 08:35:12;;;;;;;3.37;0.80;;;;;;;15.26;48.28;99387.94;5104409;28;20195;-68
2021/05/22 08:37:38;;;;;;;1.83;0.70;;;;;;;15.28;48.67;99402.06;5102860;28;20200;-68
2021/05/22 08:40:05;;;;;;;4.93;1.23;;;;;;;15.28;47.78;99377.91;5088894;28;20200;-68
2021/05/22 08:42:31;;;;;;;2.70;0.67;;;;;;;15.21;47.92;99392.97;5091030;28;20204;-68
2021/05/22 08:45:06;;;;;;;2.43;0.70;;;;;;;15.17;48.00;99394.28;5092229;28;20726;-68
2021/05/22 08:47:32;;;;;;;1.90;0.70;;;;;;;15.17;48.38;99394.28;5094154;28;20661;-67
2021/05/22 08:49:59;;;;;;;2.50;0.53;;;;;;;15.16;48.30;99388.06;5094515;28;20657;-65
2021/05/22 08:52:26;;;;;;;3.83;0.80;;;;;;;15.13;48.28;99390.22;5095783;28;20204;-68
2021/05/22 08:54:52;;;;;;;1.77;0.50;;;;;;;15.10;48.25;99377.97;5090415;28;20277;-67
2021/05/22 08:57:18;;;;;;;2.47;0.80;;;;;;;15.08;49.55;99405.94;5094749;28;20204;-68
2021/05/22 08:59:47;;;;;;;3.30;0.90;;;;;;;15.03;49.66;99400.22;5092710;28;20218;-68
2021/05/22 09:02:16;;;;;;;2.07;0.87;;;;;;;14.98;50.75;99424.81;5098550;28;20199;-69
2021/05/22 09:05:06;;;;;;;2.50;0.90;;;;;;;14.93;51.94;99429.78;5101155;28;20237;-68
2021/05/22 09:07:35;;;;;;;112.97;12.53;;;;;;;14.88;53.03;99432.06;5091272;28;20208;-68
2021/05/22 09:10:08;;;;;;;2.53;0.67;;;;;;;14.75;53.29;99423.56;5090278;28;20200;-68
2021/05/22 09:12:35;;;;;;;0.97;0.60;;;;;;;14.58;54.20;99446.69;5088076;28;20200;-70
2021/05/22 09:15:07;;;;;;;3.53;0.80;;;;;;;14.41;54.95;99447.53;5089713;28;20238;-69
2021/05/22 09:17:34;;;;;;;1.67;0.60;;;;;;;14.30;55.29;99466.44;5099794;28;20223;-69
2021/05/22 09:20:10;;;;;;;1.57;0.40;;;;;;;14.14;55.91;99451.88;5096191;28;20226;-70
2021/05/22 09:22:37;;;;;;;1.57;0.67;;;;;;;14.01;56.64;99463.91;5098437;28;20203;-69
2021/05/22 09:25:06;;;;;;;2.03;0.60;;;;;;;13.90;57.26;99465.78;5095660;28;20697;-68
2021/05/22 09:27:35;;;;;;;2.63;0.67;;;;;;;13.79;57.90;99473.16;5095628;28;20577;-69
2021/05/22 09:30:09;;;;;;;1.30;0.60;;;;;;;13.67;58.13;99459.09;5099743;28;20243;-68
2021/05/22 09:32:35;;;;;;;1.43;0.57;;;;;;;13.54;58.40;99456.75;5089565;28;20200;-68
2021/05/22 09:35:01;;;;;;;2.70;0.67;;;;;;;13.49;59.12;99453.66;5090720;28;20216;-69
2021/05/22 09:37:27;;;;;;;1.03;0.50;;;;;;;13.51;59.95;99454.38;5094131;28;20302;-69
2021/05/22 09:39:54;;;;;;;2.37;0.80;;;;;;;13.59;59.52;99450.97;5096667;28;20234;-69
2021/05/22 09:42:27;;;;;;;2.03;0.60;;;;;;;13.63;60.10;99454.19;5096824;28;20199;-69
2021/05/22 09:44:53;;;;;;;1.63;0.50;;;;;;;13.68;59.74;99462.63;5098549;28;20220;-69
2021/05/22 09:47:19;;;;;;;3.23;0.70;;;;;;;13.72;58.69;99451.50;5094826;28;20203;-69
2021/05/22 09:49:49;;;;;;;1.33;0.60;;;;;;;13.82;59.02;99459.47;5098329;28;20200;-69
2021/05/22 09:52:16;;;;;;;2.60;0.70;;;;;;;13.93;58.86;99455.78;5093136;28;20197;-69
2021/05/22 09:54:45;;;;;;;1.43;0.47;;;;;;;13.99;57.42;99460.53;5089971;28;20551;-68
2021/05/22 09:57:17;;;;;;;2.50;0.60;;;;;;;13.97;57.07;99463.38;5089442;28;20196;-69
2021/05/22 10:00:08;;;;;;;2.93;0.57;;;;;;;13.98;57.10;99448.13;5088654;28;20236;-67
2021/05/22 10:02:42;;;;;;;4.00;0.87;;;;;;;14.03;57.66;99459.25;5087415;28;20601;-68
2021/05/22 10:05:13;;;;;;;1.53;0.50;;;;;;;14.05;57.52;99467.97;5086966;28;20204;-68
2021/05/22 10:07:39;;;;;;;1.00;0.60;;;;;;;14.07;57.42;99463.31;5090776;28;20586;-68
2021/05/22 10:10:06;;;;;;;2.40;0.50;;;;;;;14.13;58.68;99462.75;5092709;28;20738;-67
2021/05/22 10:12:36;;;;;;;1.87;0.70;;;;;;;14.16;58.39;99465.09;5094775;28;20337;-69
2021/05/22 10:15:02;;;;;;;2.47;0.80;;;;;;;14.16;58.71;99459.75;5093282;28;20293;-69
2021/05/22 10:17:29;;;;;;;2.40;0.70;;;;;;;14.13;59.15;99479.66;5094879;28;20215;-68
2021/05/22 10:19:55;;;;;;;0.73;0.33;;;;;;;14.05;58.54;99457.28;5095604;28;20204;-68
2021/05/22 10:22:21;;;;;;;1.63;0.57;;;;;;;13.97;58.80;99465.22;5104873;28;20203;-69
2021/05/22 10:24:48;;;;;;;1.37;0.50;;;;;;;13.91;59.44;99474.66;5107128;28;20237;-69
2021/05/22 10:27:14;;;;;;;2.90;0.57;;;;;;;13.90;59.62;99472.97;5100755;28;20210;-69
2021/05/22 10:29:41;;;;;;;1.83;0.43;;;;;;;13.87;59.74;99475.94;5094270;28;20223;-69
2021/05/22 10:32:18;;;;;;;1.23;0.60;;;;;;;13.82;59.39;99479.06;5094956;28;20592;-69
2021/05/22 10:34:44;;;;;;;1.80;0.60;;;;;;;13.79;60.00;99492.72;5097116;28;20250;-68
2021/05/22 10:37:10;;;;;;;1.60;0.47;;;;;;;13.77;58.88;99486.69;5093391;28;20225;-67
2021/05/22 10:39:39;;;;;;;1.47;0.40;;;;;;;13.71;59.22;99499.81;5100221;28;20787;-68
2021/05/22 10:42:08;;;;;;;1.50;0.50;;;;;;;13.68;60.04;99498.25;5095616;28;20200;-68
2021/05/22 10:44:37;;;;;;;1.83;0.70;;;;;;;13.66;60.43;99515.44;5092693;28;20647;-68
2021/05/22 10:47:11;;;;;;;3.27;0.60;;;;;;;13.64;60.99;99525.44;5095246;28;20783;-68
2021/05/22 10:49:53;;;;;;;2.33;0.50;;;;;;;13.57;61.35;99522.50;5094874;28;20200;-68
2021/05/22 10:52:21;;;;;;;2.97;0.80;;;;;;;13.51;61.88;99528.41;5091487;28;20208;-70
2021/05/22 10:55:01;;;;;;;1.43;0.77;;;;;;;13.39;62.51;99540.28;5090406;28;20433;-69
2021/05/22 10:57:28;;;;;;;3.20;0.63;;;;;;;13.31;63.26;99532.94;5087867;28;20204;-69
2021/05/22 11:00:20;;;;;;;1.47;0.50;;;;;;;13.30;63.90;99519.72;5090823;28;20797;-68
2021/05/22 11:02:48;;;;;;;1.67;0.60;;;;;;;13.27;64.44;99515.47;5091772;28;20205;-68
2021/05/22 11:05:36;;;;;;;1.63;0.57;;;;;;;13.24;64.85;99514.94;5094910;28;20200;-70
2021/05/22 11:08:28;;;;;;;1.17;0.70;;;;;;;13.19;64.67;99523.38;5095485;28;20243;-69
2021/05/22 11:10:59;;;;;;;3.97;1.00;;;;;;;13.16;65.56;99527.19;5092769;28;20211;-69
2021/05/22 11:13:40;;;;;;;1.67;0.50;;;;;;;13.19;66.08;99536.75;5092753;28;20589;-68
2021/05/22 11:16:07;;;;;;;2.77;0.80;;;;;;;13.22;66.14;99532.97;5092628;28;20200;-72
2021/05/22 11:19:03;;;;;;;1.70;0.60;;;;;;;13.20;66.32;99523.25;5105438;28;20207;-71
2021/05/22 11:21:29;;;;;;;2.47;0.73;;;;;;;13.22;67.22;99533.81;5102907;28;20742;-67
2021/05/22 11:24:07;;;;;;;1.60;0.70;;;;;;;13.24;67.19;99539.84;5102909;28;20227;-68
2021/05/22 11:27:01;;;;;;;2.37;0.60;;;;;;;13.27;67.80;99533.34;5103515;28;20706;-66
2021/05/22 11:29:51;;;;;;;4.70;0.83;;;;;;;13.34;68.34;99543.34;5096493;28;20674;-69
2021/05/22 11:32:45;;;;;;;1.60;0.50;;;;;;;13.39;68.49;99541.09;5087068;28;20200;-70
2021/05/22 11:35:44;;;;;;;0.50;0.50;;;;;;;13.35;68.13;99546.88;5090475;28;20217;-70
2021/05/22 11:38:32;;;;;;;2.50;0.80;;;;;;;13.30;68.32;99538.44;5093190;28;20196;-69